Weather at Shaw River Airport

Public forecast

Using degrees Celsius for public forecast. Weather courtesy of forecast.io.

Closest aviation weather report (METAR) to Shaw River Airport

Closest report is Port Hedland International Airport, 79.5 nm (147.3 km) NNW.

2024/05/30 10:00 (retrieved 22 minutes ago)

YPPD 301000Z AUTO 01010KT 9999 // NCD 24/19 Q1015 RF000/0000

Closest aviation forecast (TAF) to Shaw River Airport

Closest forecast is Port Hedland International Airport, 79.5 nm (147.3 km) NNW.

2024/05/30 06:36 (retrieved 4 hours ago)

TAF YPPD 300523Z 3006/3106 10008KT CAVOK FM300900 06008KT CAVOK FM301200 10006KT CAVOK FM301600 15008KT CAVOK FM310000 10016G26KT CAVOK FM310300 10014KT CAVOK